Time;durP1;ratioP1;P1;durP2;ratioP2;P2;SDS_P1;SDS_P2;PMS_P1;PMS_P2;Temp;Humidity;BMP_temperature;BMP_pressure;BME280_temperature;BME280_humidity;BME280_pressure;Samples;Min_cycle;Max_cycle;Signal;HPM_P1;HPM_P2
2023/07/16 00:01:47;;;;;;;14.18;5.70;;;;;;;;;;5071738;28;20074;-56
2023/07/16 00:04:13;;;;;;;15.35;5.70;;;;;;;;;;5070883;28;20032;-57
2023/07/16 00:06:39;;;;;;;14.20;5.38;;;;;;;;;;5071664;28;20388;-56
2023/07/16 00:09:06;;;;;;;14.00;5.30;;;;;;;;;;5072571;28;20462;-58
2023/07/16 00:11:32;;;;;;;13.82;5.70;;;;;;;;;;5071512;28;20020;-58
2023/07/16 00:13:58;;;;;;;15.30;5.85;;;;;;;;;;5071119;28;20374;-57
2023/07/16 00:16:24;;;;;;;13.30;5.70;;;;;;;;;;5072886;28;20024;-57
2023/07/16 00:18:50;;;;;;;16.10;6.05;;;;;;;;;;5057616;28;20131;-57
2023/07/16 00:21:16;;;;;;;14.48;6.10;;;;;;;;;;5075825;28;20036;-56
2023/07/16 00:23:42;;;;;;;14.52;5.85;;;;;;;;;;5075951;28;20028;-59
2023/07/16 00:26:08;;;;;;;14.98;6.25;;;;;;;;;;5074889;28;20461;-59
2023/07/16 00:28:34;;;;;;;16.70;6.88;;;;;;;;;;5075431;28;20165;-57
2023/07/16 00:31:01;;;;;;;14.13;6.43;;;;;;;;;;5075255;28;20025;-58
2023/07/16 00:33:27;;;;;;;14.50;6.13;;;;;;;;;;5057392;28;20349;-58
2023/07/16 00:35:53;;;;;;;13.90;6.00;;;;;;;;;;5074622;28;20028;-58
2023/07/16 00:38:19;;;;;;;15.10;5.80;;;;;;;;;;5075383;28;20024;-58
2023/07/16 00:40:46;;;;;;;16.50;7.07;;;;;;;;;;5075235;28;20392;-57
2023/07/16 00:43:12;;;;;;;13.48;5.82;;;;;;;;;;5075143;28;20078;-56
2023/07/16 00:45:39;;;;;;;16.58;6.57;;;;;;;;;;5074411;28;20040;-57
2023/07/16 00:48:06;;;;;;;15.23;6.10;;;;;;;;;;5074961;28;20082;-57
2023/07/16 00:50:33;;;;;;;14.52;5.75;;;;;;;;;;5057225;28;20439;-58
2023/07/16 00:53:01;;;;;;;15.15;5.85;;;;;;;;;;5075071;28;20020;-59
2023/07/16 00:55:27;;;;;;;16.98;6.25;;;;;;;;;;5074203;28;20120;-57
2023/07/16 00:57:55;;;;;;;15.20;6.43;;;;;;;;;;5074809;28;20039;-57
2023/07/16 01:00:22;;;;;;;14.07;6.40;;;;;;;;;;5074775;28;20020;-57
2023/07/16 01:02:48;;;;;;;15.75;5.85;;;;;;;;;;5074575;28;20461;-58
2023/07/16 01:05:14;;;;;;;15.07;6.07;;;;;;;;;;5073815;28;20028;-58
2023/07/16 01:07:43;;;;;;;15.98;6.63;;;;;;;;;;5074678;28;20059;-58
2023/07/16 01:10:10;;;;;;;15.40;6.35;;;;;;;;;;5070761;28;20487;-56
2023/07/16 01:12:37;;;;;;;14.90;6.45;;;;;;;;;;5074183;28;20024;-57
2023/07/16 01:15:03;;;;;;;15.73;6.82;;;;;;;;;;5073411;28;20052;-58
2023/07/16 01:17:29;;;;;;;15.48;6.30;;;;;;;;;;5074107;28;20392;-56
2023/07/16 01:19:54;;;;;;;15.48;6.20;;;;;;;;;;5056703;28;20024;-56
2023/07/16 01:22:24;;;;;;;16.13;6.80;;;;;;;;;;5074366;28;20517;-57
2023/07/16 01:24:50;;;;;;;15.70;6.72;;;;;;;;;;5073596;28;20024;-58
2023/07/16 01:27:35;;;;;;;18.58;6.88;;;;;;;;;;5055593;28;20427;-60
2023/07/16 01:30:04;;;;;;;15.70;7.07;;;;;;;;;;5074291;28;20028;-57
2023/07/16 01:32:34;;;;;;;15.55;7.38;;;;;;;;;;5074108;28;20021;-55
2023/07/16 01:35:00;;;;;;;16.20;7.05;;;;;;;;;;5073458;28;20059;-58
2023/07/16 01:37:26;;;;;;;16.13;7.00;;;;;;;;;;5056160;28;20040;-58
2023/07/16 01:39:52;;;;;;;15.73;6.68;;;;;;;;;;5074077;28;20059;-54
2023/07/16 01:42:18;;;;;;;17.20;6.97;;;;;;;;;;5074445;28;20036;-57
2023/07/16 01:44:44;;;;;;;17.88;7.30;;;;;;;;;;5073298;28;20024;-56
2023/07/16 01:47:19;;;;;;;14.98;6.35;;;;;;;;;;5073791;28;20107;-56
2023/07/16 01:49:46;;;;;;;17.50;7.72;;;;;;;;;;5055962;28;20024;-57
2023/07/16 01:52:12;;;;;;;16.60;7.68;;;;;;;;;;5073899;28;20473;-58
2023/07/16 01:54:38;;;;;;;15.88;6.57;;;;;;;;;;5073245;28;20100;-56
2023/07/16 01:57:05;;;;;;;16.00;7.18;;;;;;;;;;5073707;28;20029;-58
2023/07/16 01:59:31;;;;;;;15.55;7.15;;;;;;;;;;5073575;28;20059;-56
2023/07/16 02:01:57;;;;;;;16.75;7.20;;;;;;;;;;5055668;28;20063;-54
2023/07/16 02:04:23;;;;;;;16.52;6.75;;;;;;;;;;5072675;28;20052;-58
2023/07/16 02:06:49;;;;;;;16.88;7.32;;;;;;;;;;5055448;28;20115;-58
2023/07/16 02:09:15;;;;;;;16.45;7.53;;;;;;;;;;5073372;28;20504;-57
2023/07/16 02:11:41;;;;;;;15.35;6.85;;;;;;;;;;5055321;28;20016;-58
2023/07/16 02:14:07;;;;;;;18.77;6.68;;;;;;;;;;5072509;28;20400;-56
2023/07/16 02:16:33;;;;;;;15.93;7.07;;;;;;;;;;5072865;28;20028;-57
2023/07/16 02:18:59;;;;;;;17.75;7.70;;;;;;;;;;5073145;28;20024;-57
2023/07/16 02:21:25;;;;;;;18.30;7.95;;;;;;;;;;5073081;28;20078;-56
2023/07/16 02:23:51;;;;;;;16.35;7.90;;;;;;;;;;5055262;28;20036;-58
2023/07/16 02:26:17;;;;;;;17.17;7.95;;;;;;;;;;5072440;28;20029;-56
2023/07/16 02:28:43;;;;;;;16.17;7.53;;;;;;;;;;5072999;28;20028;-54
2023/07/16 02:31:09;;;;;;;16.50;7.95;;;;;;;;;;5054974;28;20452;-56
2023/07/16 02:33:35;;;;;;;17.15;7.40;;;;;;;;;;5072861;28;20029;-57
2023/07/16 02:36:01;;;;;;;19.90;8.63;;;;;;;;;;5072414;28;20028;-57
2023/07/16 02:38:27;;;;;;;17.00;7.80;;;;;;;;;;5072013;28;20529;-57
2023/07/16 02:40:52;;;;;;;17.73;7.63;;;;;;;;;;5054800;28;20050;-53
2023/07/16 02:43:18;;;;;;;18.75;8.85;;;;;;;;;;5054885;28;20025;-57
2023/07/16 02:45:44;;;;;;;18.85;7.75;;;;;;;;;;5071742;28;20438;-54
2023/07/16 02:48:10;;;;;;;19.13;8.35;;;;;;;;;;5072539;28;20048;-57
2023/07/16 02:50:37;;;;;;;19.50;8.35;;;;;;;;;;5072595;28;20052;-57
2023/07/16 02:53:07;;;;;;;18.38;8.00;;;;;;;;;;5072545;28;20099;-58
2023/07/16 02:55:33;;;;;;;17.50;8.70;;;;;;;;;;5071666;28;20021;-59
2023/07/16 02:58:02;;;;;;;17.02;7.97;;;;;;;;;;5072306;28;20025;-57
2023/07/16 03:00:28;;;;;;;16.90;7.57;;;;;;;;;;5072382;28;20495;-57
2023/07/16 03:02:54;;;;;;;17.98;7.85;;;;;;;;;;5072183;28;20027;-58
2023/07/16 03:05:20;;;;;;;18.42;8.82;;;;;;;;;;5071465;28;20040;-57
2023/07/16 03:07:46;;;;;;;20.50;9.27;;;;;;;;;;5071887;28;20120;-59
2023/07/16 03:10:12;;;;;;;18.20;8.30;;;;;;;;;;5072039;28;20024;-53
2023/07/16 03:12:38;;;;;;;19.50;8.13;;;;;;;;;;5072096;28;20070;-55
2023/07/16 03:15:04;;;;;;;19.40;8.13;;;;;;;;;;5071403;28;20023;-57
2023/07/16 03:17:30;;;;;;;18.75;8.07;;;;;;;;;;5071876;28;20107;-57
2023/07/16 03:19:56;;;;;;;19.20;8.07;;;;;;;;;;5072191;28;20135;-58
2023/07/16 03:22:22;;;;;;;20.27;8.68;;;;;;;;;;5072418;28;20028;-58
2023/07/16 03:24:48;;;;;;;17.38;7.78;;;;;;;;;;5071250;28;20032;-57
2023/07/16 03:27:14;;;;;;;22.98;9.65;;;;;;;;;;5071864;28;20107;-56
2023/07/16 03:29:40;;;;;;;19.25;8.68;;;;;;;;;;5071888;28;20452;-58
2023/07/16 03:32:06;;;;;;;18.73;8.90;;;;;;;;;;5071891;28;20047;-57
2023/07/16 03:34:32;;;;;;;23.77;10.10;;;;;;;;;;5071085;28;20035;-58
2023/07/16 03:36:58;;;;;;;20.73;10.07;;;;;;;;;;5070564;28;20024;-59
2023/07/16 03:39:24;;;;;;;19.20;9.23;;;;;;;;;;5071567;28;20521;-57
2023/07/16 03:41:50;;;;;;;19.55;8.63;;;;;;;;;;5071937;28;20393;-57
2023/07/16 03:44:16;;;;;;;18.38;8.77;;;;;;;;;;5070984;28;20020;-58
2023/07/16 03:46:42;;;;;;;18.58;8.85;;;;;;;;;;5071524;28;20039;-52
2023/07/16 03:49:08;;;;;;;19.42;8.95;;;;;;;;;;5071613;28;20062;-57
2023/07/16 03:51:34;;;;;;;17.02;7.90;;;;;;;;;;5071309;28;20025;-55
2023/07/16 03:54:00;;;;;;;17.13;7.70;;;;;;;;;;5071271;28;20039;-57
2023/07/16 03:56:26;;;;;;;18.58;7.82;;;;;;;;;;5071500;28;20024;-59
2023/07/16 03:58:52;;;;;;;16.75;7.70;;;;;;;;;;5053660;28;20027;-55
2023/07/16 04:01:18;;;;;;;17.00;7.78;;;;;;;;;;5071675;28;20032;-59
2023/07/16 04:03:44;;;;;;;20.52;7.55;;;;;;;;;;5071582;28;20240;-59
2023/07/16 04:06:11;;;;;;;16.42;6.93;;;;;;;;;;5070753;28;20384;-58
2023/07/16 04:08:37;;;;;;;16.15;6.88;;;;;;;;;;5071353;28;20119;-55
2023/07/16 04:11:04;;;;;;;19.33;7.75;;;;;;;;;;5071509;28;20473;-56
2023/07/16 04:13:30;;;;;;;16.42;7.38;;;;;;;;;;5071445;28;20090;-58
2023/07/16 04:15:57;;;;;;;17.27;6.70;;;;;;;;;;5070752;28;20043;-56
2023/07/16 04:18:24;;;;;;;16.85;6.82;;;;;;;;;;5071415;28;20043;-57
2023/07/16 04:20:50;;;;;;;17.00;6.78;;;;;;;;;;5071672;28;20024;-58
2023/07/16 04:23:16;;;;;;;22.95;8.23;;;;;;;;;;5071571;28;20021;-59
2023/07/16 04:25:42;;;;;;;17.23;6.72;;;;;;;;;;5070575;28;20021;-58
2023/07/16 04:28:08;;;;;;;15.38;6.70;;;;;;;;;;5071327;28;20371;-57
2023/07/16 04:30:34;;;;;;;18.08;6.78;;;;;;;;;;5071226;28;20017;-55
2023/07/16 04:33:00;;;;;;;17.52;7.30;;;;;;;;;;5071260;28;20029;-55
2023/07/16 04:35:26;;;;;;;15.55;6.70;;;;;;;;;;5070566;28;20024;-55
2023/07/16 04:37:52;;;;;;;16.90;6.80;;;;;;;;;;5071035;28;20024;-58
2023/07/16 04:40:18;;;;;;;18.75;7.43;;;;;;;;;;5071236;28;20078;-55
2023/07/16 04:42:44;;;;;;;17.35;6.70;;;;;;;;;;5071147;28;20392;-57
2023/07/16 04:45:10;;;;;;;15.27;6.68;;;;;;;;;;5070287;28;20024;-56
2023/07/16 04:47:36;;;;;;;14.40;6.60;;;;;;;;;;5071114;28;20432;-58
2023/07/16 04:50:02;;;;;;;17.08;6.28;;;;;;;;;;5071043;28;20052;-56
2023/07/16 04:52:28;;;;;;;16.02;6.20;;;;;;;;;;5071048;28;20116;-59
2023/07/16 04:54:54;;;;;;;14.75;6.07;;;;;;;;;;5070174;28;20021;-53
2023/07/16 04:57:19;;;;;;;15.60;5.60;;;;;;;;;;5052987;28;20064;-58
2023/07/16 04:59:45;;;;;;;14.45;6.53;;;;;;;;;;5071086;28;20024;-59
2023/07/16 05:02:12;;;;;;;15.02;5.80;;;;;;;;;;5072139;28;20107;-59
2023/07/16 05:04:38;;;;;;;19.75;6.05;;;;;;;;;;5073991;28;20024;-58
2023/07/16 05:07:04;;;;;;;17.02;6.55;;;;;;;;;;5074263;28;20453;-58
2023/07/16 05:09:30;;;;;;;15.48;6.13;;;;;;;;;;5074706;28;20159;-55
2023/07/16 05:11:56;;;;;;;20.80;7.13;;;;;;;;;;5074605;28;20017;-58
2023/07/16 05:14:22;;;;;;;15.35;7.25;;;;;;;;;;5073619;28;20029;-58
2023/07/16 05:16:48;;;;;;;17.58;7.68;;;;;;;;;;5056732;28;20066;-57
2023/07/16 05:19:14;;;;;;;16.35;6.95;;;;;;;;;;5074394;28;20024;-58
2023/07/16 05:21:40;;;;;;;16.08;6.97;;;;;;;;;;5074476;28;20060;-59
2023/07/16 05:24:06;;;;;;;16.92;7.72;;;;;;;;;;5073519;28;20029;-54
2023/07/16 05:26:33;;;;;;;17.90;7.80;;;;;;;;;;5056021;28;20029;-59
2023/07/16 05:28:59;;;;;;;15.70;7.35;;;;;;;;;;5074272;28;20027;-57
2023/07/16 05:31:25;;;;;;;17.67;6.80;;;;;;;;;;5074361;28;20032;-56
2023/07/16 05:33:51;;;;;;;20.00;7.78;;;;;;;;;;5074189;28;20074;-56
2023/07/16 05:36:16;;;;;;;19.40;7.63;;;;;;;;;;5073639;28;20047;-59
2023/07/16 05:38:42;;;;;;;17.63;7.45;;;;;;;;;;5074011;28;20029;-58
2023/07/16 05:41:08;;;;;;;19.00;7.60;;;;;;;;;;5074034;28;20025;-58
2023/07/16 05:43:34;;;;;;;19.70;7.35;;;;;;;;;;5074140;28;20036;-54
2023/07/16 05:46:00;;;;;;;24.25;8.20;;;;;;;;;;5073132;28;20025;-57
2023/07/16 05:48:26;;;;;;;19.08;8.20;;;;;;;;;;5073852;28;20021;-55
2023/07/16 05:50:52;;;;;;;17.25;8.30;;;;;;;;;;5073848;28;20477;-59
2023/07/16 05:53:18;;;;;;;17.48;8.35;;;;;;;;;;5073773;28;20143;-58
2023/07/16 05:55:44;;;;;;;20.70;9.38;;;;;;;;;;5055145;28;20052;-57
2023/07/16 05:58:10;;;;;;;18.45;9.68;;;;;;;;;;5055663;28;20037;-57
2023/07/16 06:00:36;;;;;;;22.40;9.68;;;;;;;;;;5073784;28;20534;-57
2023/07/16 06:03:03;;;;;;;19.90;8.52;;;;;;;;;;5073727;28;20111;-55
2023/07/16 06:05:33;;;;;;;20.88;8.88;;;;;;;;;;5072844;28;20029;-55
2023/07/16 06:07:59;;;;;;;18.13;8.18;;;;;;;;;;5074850;28;20025;-55
2023/07/16 06:10:25;;;;;;;18.50;7.93;;;;;;;;;;5073467;28;20082;-57
2023/07/16 06:12:51;;;;;;;17.05;8.60;;;;;;;;;;5073028;28;20032;-57
2023/07/16 06:15:17;;;;;;;18.13;8.82;;;;;;;;;;5071851;28;20036;-57
2023/07/16 06:17:44;;;;;;;18.30;9.05;;;;;;;;;;5073463;28;20063;-57
2023/07/16 06:20:10;;;;;;;18.70;8.70;;;;;;;;;;5073387;28;20028;-59
2023/07/16 06:22:36;;;;;;;19.65;9.00;;;;;;;;;;5073447;28;20024;-55
2023/07/16 06:25:02;;;;;;;20.23;9.35;;;;;;;;;;5072474;28;20032;-58
2023/07/16 06:27:28;;;;;;;21.15;9.75;;;;;;;;;;5073120;28;20031;-57
2023/07/16 06:29:54;;;;;;;18.13;8.90;;;;;;;;;;5072933;28;20388;-58
2023/07/16 06:32:20;;;;;;;18.52;9.25;;;;;;;;;;5072960;28;20122;-58
2023/07/16 06:34:46;;;;;;;21.95;9.35;;;;;;;;;;5054384;28;20031;-58
2023/07/16 06:37:12;;;;;;;21.88;9.45;;;;;;;;;;5072895;28;20058;-58
2023/07/16 06:39:38;;;;;;;18.77;9.65;;;;;;;;;;5054922;28;20086;-58
2023/07/16 06:42:04;;;;;;;24.52;9.88;;;;;;;;;;5072997;28;20017;-59
2023/07/16 06:44:30;;;;;;;23.73;10.05;;;;;;;;;;5072155;28;20025;-56
2023/07/16 06:46:57;;;;;;;21.38;9.35;;;;;;;;;;5072599;28;20032;-57
2023/07/16 06:49:23;;;;;;;26.95;11.05;;;;;;;;;;5072782;28;20028;-57
2023/07/16 06:51:49;;;;;;;18.15;9.25;;;;;;;;;;5067499;28;20043;-57
2023/07/16 06:54:15;;;;;;;18.40;9.77;;;;;;;;;;5062728;28;20606;-57
2023/07/16 06:56:41;;;;;;;20.23;9.55;;;;;;;;;;5060781;28;20060;-59
2023/07/16 06:59:07;;;;;;;18.45;8.93;;;;;;;;;;5034500;28;20446;-59
2023/07/16 07:01:33;;;;;;;18.52;9.00;;;;;;;;;;5068944;28;20029;-56
2023/07/16 07:03:59;;;;;;;19.35;8.85;;;;;;;;;;5071778;28;20366;-57
2023/07/16 07:06:25;;;;;;;19.75;9.13;;;;;;;;;;5072068;28;20206;-59
2023/07/16 07:08:51;;;;;;;19.67;10.00;;;;;;;;;;5064854;28;20044;-61
2023/07/16 07:11:17;;;;;;;17.95;8.65;;;;;;;;;;5065504;28;20108;-57
2023/07/16 07:13:44;;;;;;;19.08;9.45;;;;;;;;;;5072024;28;20106;-56
2023/07/16 07:16:10;;;;;;;21.58;8.95;;;;;;;;;;5071192;28;20053;-58
2023/07/16 07:18:36;;;;;;;19.15;9.27;;;;;;;;;;5072259;28;20427;-55
2023/07/16 07:21:02;;;;;;;18.63;9.60;;;;;;;;;;5072058;28;20052;-59
2023/07/16 07:23:28;;;;;;;21.33;9.40;;;;;;;;;;5071918;28;20048;-59
2023/07/16 07:25:54;;;;;;;17.45;9.45;;;;;;;;;;5068370;28;20697;-55
2023/07/16 07:28:20;;;;;;;19.40;9.43;;;;;;;;;;5071823;28;20020;-59
2023/07/16 07:30:46;;;;;;;20.83;9.90;;;;;;;;;;5071620;28;20025;-57
2023/07/16 07:33:12;;;;;;;22.55;10.25;;;;;;;;;;5053702;28;20074;-57
2023/07/16 07:35:38;;;;;;;19.60;10.23;;;;;;;;;;5052888;28;20029;-58
2023/07/16 07:38:04;;;;;;;19.00;10.38;;;;;;;;;;5071705;28;20090;-57
2023/07/16 07:40:30;;;;;;;19.52;9.63;;;;;;;;;;5071289;28;20048;-57
2023/07/16 07:42:56;;;;;;;19.02;10.13;;;;;;;;;;5071514;28;20035;-58
2023/07/16 07:45:24;;;;;;;20.63;10.38;;;;;;;;;;5070853;28;20537;-56
2023/07/16 07:47:50;;;;;;;19.65;11.02;;;;;;;;;;5071695;28;20465;-54
2023/07/16 07:50:16;;;;;;;18.20;10.40;;;;;;;;;;5071542;28;20020;-55
2023/07/16 07:52:42;;;;;;;22.10;10.70;;;;;;;;;;5060326;28;20032;-55
2023/07/16 07:55:08;;;;;;;19.48;10.45;;;;;;;;;;5050697;28;20036;-53
2023/07/16 07:57:34;;;;;;;19.13;10.40;;;;;;;;;;5050077;28;20374;-51
2023/07/16 08:00:00;;;;;;;20.48;10.30;;;;;;;;;;5050289;28;20029;-52
2023/07/16 08:02:26;;;;;;;18.25;9.90;;;;;;;;;;5051464;28;20029;-54
2023/07/16 08:04:53;;;;;;;18.50;10.15;;;;;;;;;;5050890;28;20029;-54
2023/07/16 08:07:19;;;;;;;18.27;9.75;;;;;;;;;;5051150;28;20033;-52
2023/07/16 08:09:45;;;;;;;19.17;9.60;;;;;;;;;;5050289;28;20048;-51
2023/07/16 08:12:11;;;;;;;20.38;10.00;;;;;;;;;;5051398;28;20029;-49
2023/07/16 08:14:37;;;;;;;19.08;9.80;;;;;;;;;;5050483;28;20029;-56
2023/07/16 08:17:04;;;;;;;17.90;9.80;;;;;;;;;;5051152;28;20025;-49
2023/07/16 08:19:30;;;;;;;21.48;9.70;;;;;;;;;;5049847;28;20033;-53
2023/07/16 08:21:56;;;;;;;18.48;9.50;;;;;;;;;;5062742;28;20106;-52
2023/07/16 08:24:22;;;;;;;22.85;10.57;;;;;;;;;;5063464;28;20461;-52
2023/07/16 08:26:48;;;;;;;18.98;10.18;;;;;;;;;;5056196;28;20037;-55
2023/07/16 08:29:14;;;;;;;18.83;10.50;;;;;;;;;;5051006;28;20466;-50
2023/07/16 08:31:40;;;;;;;17.02;9.88;;;;;;;;;;5051269;28;20025;-54
2023/07/16 08:34:06;;;;;;;20.73;10.63;;;;;;;;;;5050516;28;20021;-52
2023/07/16 08:36:33;;;;;;;20.45;10.65;;;;;;;;;;5051023;28;20041;-51
2023/07/16 08:38:59;;;;;;;20.23;10.60;;;;;;;;;;5055008;28;20033;-55
2023/07/16 08:41:25;;;;;;;19.52;10.95;;;;;;;;;;5055121;28;20039;-54
2023/07/16 08:43:51;;;;;;;19.05;10.93;;;;;;;;;;5054687;28;20033;-56
2023/07/16 08:46:17;;;;;;;19.45;10.65;;;;;;;;;;5054398;28;20028;-55
2023/07/16 08:48:45;;;;;;;18.70;11.00;;;;;;;;;;5054641;28;20044;-56
2023/07/16 08:51:13;;;;;;;19.38;10.10;;;;;;;;;;5054666;28;20028;-51
2023/07/16 08:53:39;;;;;;;19.90;11.68;;;;;;;;;;5063054;28;20469;-55
2023/07/16 08:56:06;;;;;;;18.08;10.80;;;;;;;;;;5073972;28;20081;-54
2023/07/16 08:58:32;;;;;;;19.63;11.30;;;;;;;;;;5074751;28;20028;-50
2023/07/16 09:00:59;;;;;;;17.67;10.38;;;;;;;;;;5074455;28;20032;-56
2023/07/16 09:03:25;;;;;;;18.10;10.32;;;;;;;;;;5074320;28;20035;-50
2023/07/16 09:05:51;;;;;;;17.85;10.38;;;;;;;;;;5055928;28;20020;-49
2023/07/16 09:08:17;;;;;;;18.90;9.95;;;;;;;;;;5070775;28;20079;-54
2023/07/16 09:10:44;;;;;;;16.60;10.10;;;;;;;;;;5062580;28;20021;-51
2023/07/16 09:13:10;;;;;;;20.60;11.13;;;;;;;;;;5054181;28;20021;-49
2023/07/16 09:15:37;;;;;;;18.92;11.23;;;;;;;;;;5035226;28;20029;-49
2023/07/16 09:18:03;;;;;;;17.38;10.32;;;;;;;;;;5054164;28;20017;-53
2023/07/16 09:20:32;;;;;;;19.52;10.70;;;;;;;;;;5053718;28;20021;-51
2023/07/16 09:22:58;;;;;;;18.83;10.80;;;;;;;;;;5054137;28;20025;-51
2023/07/16 09:25:28;;;;;;;17.75;10.63;;;;;;;;;;5053302;28;20021;-54
2023/07/16 09:27:54;;;;;;;20.13;10.93;;;;;;;;;;5053909;28;20056;-54
2023/07/16 09:30:20;;;;;;;20.17;11.25;;;;;;;;;;5054127;28;20477;-53
2023/07/16 09:32:47;;;;;;;17.58;10.63;;;;;;;;;;5053663;28;20033;-55
2023/07/16 09:35:15;;;;;;;19.80;10.75;;;;;;;;;;5053420;28;20452;-54
2023/07/16 09:37:41;;;;;;;20.20;11.30;;;;;;;;;;5054001;28;20458;-52
2023/07/16 09:40:09;;;;;;;17.33;10.75;;;;;;;;;;5053849;28;20373;-52
2023/07/16 09:42:39;;;;;;;17.10;11.47;;;;;;;;;;5053866;28;20481;-54
2023/07/16 09:45:08;;;;;;;19.55;11.52;;;;;;;;;;5053118;28;20279;-55
2023/07/16 09:47:37;;;;;;;21.20;11.27;;;;;;;;;;5053380;28;20032;-54
2023/07/16 09:50:06;;;;;;;18.63;11.68;;;;;;;;;;5053550;28;20047;-56
2023/07/16 09:52:33;;;;;;;18.15;10.60;;;;;;;;;;5053706;28;20385;-56
2023/07/16 09:55:01;;;;;;;18.52;11.65;;;;;;;;;;5072393;28;20108;-52
2023/07/16 09:57:29;;;;;;;21.80;11.23;;;;;;;;;;5073380;28;20622;-53
2023/07/16 09:59:56;;;;;;;20.08;11.55;;;;;;;;;;5073602;28;20048;-53
2023/07/16 10:02:23;;;;;;;17.55;11.27;;;;;;;;;;5073432;28;20105;-55
2023/07/16 10:04:49;;;;;;;20.52;11.30;;;;;;;;;;5072442;28;20033;-55
2023/07/16 10:07:26;;;;;;;21.05;11.65;;;;;;;;;;5072955;28;20411;-56
2023/07/16 10:09:56;;;;;;;17.95;11.25;;;;;;;;;;5073448;28;20484;-56
2023/07/16 10:12:26;;;;;;;18.40;11.20;;;;;;;;;;5073196;28;20507;-51
2023/07/16 10:14:53;;;;;;;21.63;12.30;;;;;;;;;;5072407;28;20024;-55
2023/07/16 10:17:20;;;;;;;18.20;11.50;;;;;;;;;;5073129;28;20485;-51
2023/07/16 10:19:46;;;;;;;18.63;11.57;;;;;;;;;;5073090;28;20020;-52
2023/07/16 10:22:12;;;;;;;17.98;11.20;;;;;;;;;;5073013;28;20028;-52
2023/07/16 10:24:39;;;;;;;17.80;11.43;;;;;;;;;;5054408;28;20031;-53
2023/07/16 10:27:05;;;;;;;19.17;11.48;;;;;;;;;;5072809;28;20024;-52
2023/07/16 10:29:31;;;;;;;19.08;12.00;;;;;;;;;;5073035;28;20476;-55
2023/07/16 10:31:59;;;;;;;19.95;11.70;;;;;;;;;;5055180;28;20028;-49
2023/07/16 10:34:26;;;;;;;17.42;11.57;;;;;;;;;;5071994;28;20029;-50
2023/07/16 10:36:52;;;;;;;19.48;11.48;;;;;;;;;;5072531;28;20066;-53
2023/07/16 10:39:18;;;;;;;18.40;11.30;;;;;;;;;;5072809;28;20179;-52
2023/07/16 10:41:44;;;;;;;18.80;12.40;;;;;;;;;;5064746;28;20013;-50
2023/07/16 10:44:10;;;;;;;19.65;12.32;;;;;;;;;;5068142;28;20029;-53
2023/07/16 10:46:36;;;;;;;17.85;11.15;;;;;;;;;;5072198;28;20051;-54
2023/07/16 10:49:03;;;;;;;18.33;11.70;;;;;;;;;;5072422;28;20024;-57
2023/07/16 10:51:29;;;;;;;19.20;11.75;;;;;;;;;;5072031;28;20481;-54
2023/07/16 10:53:58;;;;;;;19.23;11.77;;;;;;;;;;5053755;28;20036;-57
2023/07/16 10:56:24;;;;;;;18.73;11.05;;;;;;;;;;5072023;28;20417;-53
2023/07/16 10:58:50;;;;;;;17.38;11.27;;;;;;;;;;5072025;28;20029;-53
2023/07/16 11:01:17;;;;;;;16.90;11.55;;;;;;;;;;5071656;28;20392;-52
2023/07/16 11:03:43;;;;;;;18.83;11.40;;;;;;;;;;5053953;28;20036;-55
2023/07/16 11:06:09;;;;;;;19.95;11.38;;;;;;;;;;5071237;28;20032;-53
2023/07/16 11:08:35;;;;;;;19.45;12.20;;;;;;;;;;5053725;28;20527;-54
2023/07/16 11:11:01;;;;;;;17.52;10.75;;;;;;;;;;5054280;28;20097;-56
2023/07/16 11:13:28;;;;;;;19.05;12.10;;;;;;;;;;5050927;28;20167;-53
2023/07/16 11:15:54;;;;;;;18.13;10.70;;;;;;;;;;5058576;28;20029;-53
2023/07/16 11:18:23;;;;;;;17.23;11.20;;;;;;;;;;5049891;28;20380;-57
2023/07/16 11:20:51;;;;;;;18.77;11.07;;;;;;;;;;5053465;28;20564;-58
2023/07/16 11:23:17;;;;;;;19.00;11.90;;;;;;;;;;5070544;28;20039;-54
2023/07/16 11:25:47;;;;;;;17.42;12.27;;;;;;;;;;5068026;28;20366;-54
2023/07/16 11:28:13;;;;;;;19.70;12.10;;;;;;;;;;5071291;28;20052;-54
2023/07/16 11:30:39;;;;;;;18.60;12.23;;;;;;;;;;5071571;28;20044;-53
2023/07/16 11:33:10;;;;;;;21.90;12.27;;;;;;;;;;5071605;28;20492;-54
2023/07/16 11:35:37;;;;;;;17.08;11.65;;;;;;;;;;5070371;28;20016;-54
2023/07/16 11:38:05;;;;;;;18.88;11.43;;;;;;;;;;5053185;28;20028;-52
2023/07/16 11:40:31;;;;;;;19.85;12.35;;;;;;;;;;5071679;28;20020;-53
2023/07/16 11:42:57;;;;;;;18.60;11.88;;;;;;;;;;5071621;28;20024;-57
2023/07/16 11:45:26;;;;;;;22.20;12.23;;;;;;;;;;5070923;28;20043;-57
2023/07/16 11:47:52;;;;;;;18.55;11.70;;;;;;;;;;5071303;28;20063;-58
2023/07/16 11:50:18;;;;;;;18.83;11.68;;;;;;;;;;5071266;28;20438;-53
2023/07/16 11:52:52;;;;;;;18.50;11.90;;;;;;;;;;5071261;28;20020;-53
2023/07/16 11:55:18;;;;;;;17.75;12.23;;;;;;;;;;5070753;28;20090;-57
2023/07/16 11:57:44;;;;;;;17.48;11.65;;;;;;;;;;5071360;28;20024;-53
2023/07/16 12:00:11;;;;;;;20.13;11.82;;;;;;;;;;5071468;28;20523;-53
2023/07/16 12:02:37;;;;;;;18.50;12.60;;;;;;;;;;5071313;28;20020;-55
2023/07/16 12:05:03;;;;;;;18.33;12.23;;;;;;;;;;5070495;28;20051;-53
2023/07/16 12:07:33;;;;;;;16.58;11.52;;;;;;;;;;5072336;28;20029;-57
2023/07/16 12:09:59;;;;;;;20.85;12.40;;;;;;;;;;5071404;28;20091;-57
2023/07/16 12:12:25;;;;;;;19.13;11.63;;;;;;;;;;5074731;28;20090;-57
2023/07/16 12:14:52;;;;;;;18.98;11.70;;;;;;;;;;5074453;28;20024;-54
2023/07/16 12:17:18;;;;;;;18.58;11.90;;;;;;;;;;4714677;28;10000295;-54
2023/07/16 12:19:44;;;;;;;18.00;11.65;;;;;;;;;;5060560;28;20095;-55
2023/07/16 12:22:10;;;;;;;16.60;11.57;;;;;;;;;;5046813;28;20521;-57
2023/07/16 12:24:36;;;;;;;20.23;11.40;;;;;;;;;;5067536;28;20074;-58
2023/07/16 12:27:02;;;;;;;19.15;12.32;;;;;;;;;;5060361;28;20454;-57
2023/07/16 12:29:28;;;;;;;19.50;12.07;;;;;;;;;;5059020;28;20071;-55
2023/07/16 12:31:54;;;;;;;18.50;11.70;;;;;;;;;;5061321;28;20025;-55
2023/07/16 12:34:20;;;;;;;17.42;11.27;;;;;;;;;;5060411;28;20371;-56
2023/07/16 12:36:46;;;;;;;18.75;11.90;;;;;;;;;;5059880;28;20033;-58
2023/07/16 12:39:12;;;;;;;20.15;12.63;;;;;;;;;;5060107;28;20112;-55
2023/07/16 12:41:37;;;;;;;19.55;12.30;;;;;;;;;;5067031;28;20463;-54
2023/07/16 12:44:04;;;;;;;19.98;12.93;;;;;;;;;;5071096;28;20033;-54
2023/07/16 12:46:30;;;;;;;19.60;12.45;;;;;;;;;;5052016;28;20028;-53
2023/07/16 12:48:56;;;;;;;17.73;11.43;;;;;;;;;;5067108;28;20091;-55
2023/07/16 12:51:22;;;;;;;18.17;12.10;;;;;;;;;;5063307;28;20124;-55
2023/07/16 12:53:48;;;;;;;18.77;12.07;;;;;;;;;;5050411;28;20028;-56
2023/07/16 12:56:14;;;;;;;18.25;11.68;;;;;;;;;;5050141;28;20497;-55
2023/07/16 12:58:40;;;;;;;16.90;11.50;;;;;;;;;;5051032;28;20124;-57
2023/07/16 13:01:06;;;;;;;18.50;12.10;;;;;;;;;;5051100;28;20033;-55
2023/07/16 13:03:31;;;;;;;21.42;11.35;;;;;;;;;;5051413;28;20021;-56
2023/07/16 13:05:57;;;;;;;17.63;12.60;;;;;;;;;;5059595;28;20390;-54
2023/07/16 13:08:23;;;;;;;19.98;12.40;;;;;;;;;;5042965;28;20037;-54
2023/07/16 13:10:49;;;;;;;19.40;12.48;;;;;;;;;;5045122;28;20020;-55
2023/07/16 13:13:15;;;;;;;18.55;12.65;;;;;;;;;;5064238;28;20315;-55
2023/07/16 13:15:41;;;;;;;18.15;12.15;;;;;;;;;;5069868;28;20033;-59
2023/07/16 13:18:10;;;;;;;18.63;11.93;;;;;;;;;;5070552;28;20508;-53
2023/07/16 13:20:36;;;;;;;19.92;12.95;;;;;;;;;;5071284;28;20020;-53
2023/07/16 13:23:03;;;;;;;20.38;12.75;;;;;;;;;;5070271;28;20127;-56
2023/07/16 13:25:29;;;;;;;20.75;12.68;;;;;;;;;;5052131;28;20031;-55
2023/07/16 13:27:56;;;;;;;17.25;11.73;;;;;;;;;;5070453;28;20032;-54
2023/07/16 13:30:22;;;;;;;20.75;12.23;;;;;;;;;;5070275;28;20016;-56
2023/07/16 13:32:49;;;;;;;20.67;12.40;;;;;;;;;;5070624;28;20033;-55
2023/07/16 13:35:18;;;;;;;19.77;12.63;;;;;;;;;;5069812;28;20055;-55
2023/07/16 13:37:45;;;;;;;19.75;12.13;;;;;;;;;;5070429;28;20046;-56
2023/07/16 13:40:12;;;;;;;18.35;12.23;;;;;;;;;;5052513;28;20597;-56
2023/07/16 13:42:38;;;;;;;18.17;12.32;;;;;;;;;;5070162;28;20024;-57
2023/07/16 13:45:04;;;;;;;20.08;13.05;;;;;;;;;;5051110;28;20032;-57
2023/07/16 13:47:30;;;;;;;18.92;12.32;;;;;;;;;;5050227;28;20056;-55
2023/07/16 13:49:56;;;;;;;22.80;12.18;;;;;;;;;;5050148;28;20545;-56
2023/07/16 13:52:22;;;;;;;18.55;11.63;;;;;;;;;;5049480;28;20063;-53
2023/07/16 13:54:48;;;;;;;19.63;12.25;;;;;;;;;;5066976;28;20108;-56
2023/07/16 13:57:15;;;;;;;20.17;12.40;;;;;;;;;;5069241;28;20484;-54
2023/07/16 13:59:41;;;;;;;17.30;12.48;;;;;;;;;;5069497;28;20037;-57
2023/07/16 14:02:07;;;;;;;17.55;12.68;;;;;;;;;;5069972;28;20036;-56
2023/07/16 14:04:33;;;;;;;19.33;13.10;;;;;;;;;;5068689;28;20523;-56
2023/07/16 14:06:59;;;;;;;17.23;12.48;;;;;;;;;;5069834;28;20485;-56
2023/07/16 14:09:25;;;;;;;17.67;12.40;;;;;;;;;;5069964;28;20059;-54
2023/07/16 14:11:51;;;;;;;17.48;12.48;;;;;;;;;;5069547;28;20135;-54
2023/07/16 14:14:18;;;;;;;18.17;12.27;;;;;;;;;;5069067;28;20039;-54
2023/07/16 14:16:44;;;;;;;17.60;12.85;;;;;;;;;;5064163;28;20075;-63
2023/07/16 14:19:12;;;;;;;18.10;12.55;;;;;;;;;;5049372;28;20056;-58